Brewster, NE (68821)

9:18 PM CDT on August 27, 2014 (GMT -0500)
Broken Bow Municipal | Change Station
CLOSE
Current Station
Airport
Location: Broken Bow,
Elevation: 2546 ft
Nearby Weather Stations

Elev 2546 ft 41.44 °N, 99.64 °W | Updated 17 minutes ago

Light Rain
Light Rain
71 °F
Feels Like 71 °F
N
8
Wind Variable Wind from SSE

Today
High -- | Low -- °F
--% Chance of Precip.
Yesterday
High -- | Low -- °F
Precip. -- in
6:59 AM 8:20 PM
Waxing Crescent, 6% visible
Pressure 30.04 in
Visibility 7.0 miles
Clouds Scattered Clouds 900 ft
Mostly Cloudy 8000 ft
Mostly Cloudy 12000 ft
Dew Point 69 °F
Humidity 93%
Rainfall 0.05 in
Snow Depth Not available.
UV 0 out of 12
Pollen 4.90 out of 12
Air Quality Not available.
Flu Activity Not available.
SPECI KBBW 280201Z AUTO 15007KT 7SM -RA SCT009 BKN080 BKN120 22/21 A3004 RMK AO2 P0000 T02170206

More Conditions Fewer Conditions

Pressure 30.04 in
Visibility 7.0 miles
Clouds Scattered Clouds 900 ft
Mostly Cloudy 8000 ft
Mostly Cloudy 12000 ft
Dew Point 69 °F
Humidity 93%
Rainfall 0.05 in
Snow Depth Not available.
UV 0 out of 12
Pollen 4.90 out of 12
Air Quality Not available.
Flu Activity Not available.
SPECI KBBW 280201Z AUTO 15007KT 7SM -RA SCT009 BKN080 BKN120 22/21 A3004 RMK AO2 P0000 T02170206

More Conditions Fewer Conditions

10-Day Weather Forecast

Almanac

Astronomy

Aug. 27, 2014 Rise Set
Actual Time 6:59 AM CDT 8:20 PM CDT
Civil Twilight 6:30 AM CDT 8:49 PM CDT
Nautical Twilight 5:55 AM CDT 9:24 PM CDT
Astronomical Twilight 5:18 AM CDT 10:01 PM CDT
Moon 9:00 AM CDT (8/27) 9:10 PM CDT (8/27)
Length of Visible Light 14h 19m
Length of Day
13h 21m
Tomorrow will be 2m 40s shorter.
Waxing Crescent, 6% of the Moon is Illuminated
Today
Waxing Crescent
Sep 2
First Quarter
Sep 8
Full
Sep 15
Last Quarter
Sep 24
New

Today's Extremes

State Highs State Lows

Community

WunderPhotos

Upload Photos

1,747,870 photos uploaded!

Nearby

Snow Depth

Station Depth Elevation
No new snow has been reported.

Earthquake Activity

City Distance Mag. Time & Date
No recent earthquake activity has been reported nearby.
Minimum magnitude displayed is 2.5.

Coastal Water Temperatures

Place Temperature
No Stations Reporting

Nearby Weather Stations